sensor_id;sensor_type;location;lat;lon;timestamp;temperature;humidity
46037;DHT22;31769;49.304;8.428;2023-08-20T00:02:45;25.50;99.90
46037;DHT22;31769;49.304;8.428;2023-08-20T00:05:46;25.50;99.90
46037;DHT22;31769;49.304;8.428;2023-08-20T00:08:48;25.50;99.90
46037;DHT22;31769;49.304;8.428;2023-08-20T00:11:49;25.50;99.90
46037;DHT22;31769;49.304;8.428;2023-08-20T00:17:55;25.40;99.90
46037;DHT22;31769;49.304;8.428;2023-08-20T00:20:56;25.40;99.90
46037;DHT22;31769;49.304;8.428;2023-08-20T00:23:57;25.40;99.90
46037;DHT22;31769;49.304;8.428;2023-08-20T00:26:58;25.30;99.90
46037;DHT22;31769;49.304;8.428;2023-08-20T00:29:58;25.30;99.90
46037;DHT22;31769;49.304;8.428;2023-08-20T00:32:59;25.30;99.90
46037;DHT22;31769;49.304;8.428;2023-08-20T00:36:00;25.20;99.90
46037;DHT22;31769;49.304;8.428;2023-08-20T00:39:01;25.20;99.90
46037;DHT22;31769;49.304;8.428;2023-08-20T00:42:01;25.10;99.90
46037;DHT22;31769;49.304;8.428;2023-08-20T00:45:03;25.10;99.90
46037;DHT22;31769;49.304;8.428;2023-08-20T00:48:05;25.10;99.90
46037;DHT22;31769;49.304;8.428;2023-08-20T00:51:06;25.00;99.90
46037;DHT22;31769;49.304;8.428;2023-08-20T00:54:06;25.00;99.90
46037;DHT22;31769;49.304;8.428;2023-08-20T00:57:08;25.00;99.90
46037;DHT22;31769;49.304;8.428;2023-08-20T01:00:09;24.90;99.90
46037;DHT22;31769;49.304;8.428;2023-08-20T01:03:11;24.90;99.90
46037;DHT22;31769;49.304;8.428;2023-08-20T01:06:28;24.90;99.90
46037;DHT22;31769;49.304;8.428;2023-08-20T01:12:53;24.80;99.90
46037;DHT22;31769;49.304;8.428;2023-08-20T01:15:54;24.80;99.90
46037;DHT22;31769;49.304;8.428;2023-08-20T01:18:54;24.80;99.90
46037;DHT22;31769;49.304;8.428;2023-08-20T01:25:24;24.70;99.90
46037;DHT22;31769;49.304;8.428;2023-08-20T01:28:32;24.60;99.90
46037;DHT22;31769;49.304;8.428;2023-08-20T01:31:33;24.60;99.90
46037;DHT22;31769;49.304;8.428;2023-08-20T01:34:34;24.60;99.90
46037;DHT22;31769;49.304;8.428;2023-08-20T01:37:35;24.60;99.90
46037;DHT22;31769;49.304;8.428;2023-08-20T01:40:35;24.60;99.90
46037;DHT22;31769;49.304;8.428;2023-08-20T01:43:36;24.60;99.90
46037;DHT22;31769;49.304;8.428;2023-08-20T01:46:36;24.50;99.90
46037;DHT22;31769;49.304;8.428;2023-08-20T01:49:37;24.50;99.90
46037;DHT22;31769;49.304;8.428;2023-08-20T01:52:38;24.60;99.90
46037;DHT22;31769;49.304;8.428;2023-08-20T01:55:38;24.50;99.90
46037;DHT22;31769;49.304;8.428;2023-08-20T01:58:39;24.50;99.90
46037;DHT22;31769;49.304;8.428;2023-08-20T02:01:40;24.50;99.90
46037;DHT22;31769;49.304;8.428;2023-08-20T02:04:41;24.50;99.90
46037;DHT22;31769;49.304;8.428;2023-08-20T02:07:42;24.40;99.90
46037;DHT22;31769;49.304;8.428;2023-08-20T02:10:42;24.40;99.90
46037;DHT22;31769;49.304;8.428;2023-08-20T02:13:43;24.30;99.90
46037;DHT22;31769;49.304;8.428;2023-08-20T02:16:46;24.30;99.90
46037;DHT22;31769;49.304;8.428;2023-08-20T02:19:47;24.30;99.90
46037;DHT22;31769;49.304;8.428;2023-08-20T02:22:47;24.30;99.90
46037;DHT22;31769;49.304;8.428;2023-08-20T02:25:49;24.20;99.90
46037;DHT22;31769;49.304;8.428;2023-08-20T02:28:50;24.20;99.90
46037;DHT22;31769;49.304;8.428;2023-08-20T02:31:51;24.00;99.90
46037;DHT22;31769;49.304;8.428;2023-08-20T02:34:51;24.00;99.90
46037;DHT22;31769;49.304;8.428;2023-08-20T02:37:52;24.00;99.90
46037;DHT22;31769;49.304;8.428;2023-08-20T02:40:53;24.00;99.90
46037;DHT22;31769;49.304;8.428;2023-08-20T02:43:53;23.90;99.90
46037;DHT22;31769;49.304;8.428;2023-08-20T02:46:54;23.90;99.90
46037;DHT22;31769;49.304;8.428;2023-08-20T02:49:55;23.80;99.90
46037;DHT22;31769;49.304;8.428;2023-08-20T02:52:55;23.80;99.90
46037;DHT22;31769;49.304;8.428;2023-08-20T02:55:56;23.80;99.90
46037;DHT22;31769;49.304;8.428;2023-08-20T02:58:57;23.70;99.90
46037;DHT22;31769;49.304;8.428;2023-08-20T03:01:58;23.70;99.90
46037;DHT22;31769;49.304;8.428;2023-08-20T03:04:59;23.50;99.90
46037;DHT22;31769;49.304;8.428;2023-08-20T03:08:00;23.60;99.90
46037;DHT22;31769;49.304;8.428;2023-08-20T03:11:00;23.50;99.90
46037;DHT22;31769;49.304;8.428;2023-08-20T03:14:01;23.60;99.90
46037;DHT22;31769;49.304;8.428;2023-08-20T03:17:02;23.50;99.90
46037;DHT22;31769;49.304;8.428;2023-08-20T03:20:03;23.50;99.90
46037;DHT22;31769;49.304;8.428;2023-08-20T03:23:06;23.50;99.90
46037;DHT22;31769;49.304;8.428;2023-08-20T03:26:07;23.40;99.90
46037;DHT22;31769;49.304;8.428;2023-08-20T03:29:08;23.30;99.90
46037;DHT22;31769;49.304;8.428;2023-08-20T03:32:08;23.30;99.90
46037;DHT22;31769;49.304;8.428;2023-08-20T03:35:09;23.40;99.90
46037;DHT22;31769;49.304;8.428;2023-08-20T03:38:12;23.30;99.90
46037;DHT22;31769;49.304;8.428;2023-08-20T03:41:12;23.30;99.90
46037;DHT22;31769;49.304;8.428;2023-08-20T03:44:13;23.30;99.90
46037;DHT22;31769;49.304;8.428;2023-08-20T03:47:14;23.40;99.90
46037;DHT22;31769;49.304;8.428;2023-08-20T03:50:16;23.30;99.90
46037;DHT22;31769;49.304;8.428;2023-08-20T03:53:16;23.30;99.90
46037;DHT22;31769;49.304;8.428;2023-08-20T03:56:17;23.30;99.90
46037;DHT22;31769;49.304;8.428;2023-08-20T03:59:18;23.30;99.90
46037;DHT22;31769;49.304;8.428;2023-08-20T04:02:18;23.20;99.90
46037;DHT22;31769;49.304;8.428;2023-08-20T04:05:19;23.30;99.90
46037;DHT22;31769;49.304;8.428;2023-08-20T04:08:19;23.20;99.90
46037;DHT22;31769;49.304;8.428;2023-08-20T04:11:20;23.20;99.90
46037;DHT22;31769;49.304;8.428;2023-08-20T04:14:21;23.30;99.90
46037;DHT22;31769;49.304;8.428;2023-08-20T04:17:22;23.30;99.90
46037;DHT22;31769;49.304;8.428;2023-08-20T04:20:22;24.00;99.90
46037;DHT22;31769;49.304;8.428;2023-08-20T04:23:23;23.30;99.90
46037;DHT22;31769;49.304;8.428;2023-08-20T04:26:24;23.30;99.90
46037;DHT22;31769;49.304;8.428;2023-08-20T04:29:25;23.20;99.90
46037;DHT22;31769;49.304;8.428;2023-08-20T04:32:25;23.30;99.90
46037;DHT22;31769;49.304;8.428;2023-08-20T04:35:26;23.40;99.90
46037;DHT22;31769;49.304;8.428;2023-08-20T04:38:27;23.40;99.90
46037;DHT22;31769;49.304;8.428;2023-08-20T04:41:28;23.40;99.90
46037;DHT22;31769;49.304;8.428;2023-08-20T04:44:28;23.40;99.90
46037;DHT22;31769;49.304;8.428;2023-08-20T04:47:30;23.40;99.90
46037;DHT22;31769;49.304;8.428;2023-08-20T04:50:31;23.40;99.90
46037;DHT22;31769;49.304;8.428;2023-08-20T04:53:31;23.40;99.90
46037;DHT22;31769;49.304;8.428;2023-08-20T04:56:33;23.40;99.90
46037;DHT22;31769;49.304;8.428;2023-08-20T04:59:33;23.40;99.90
46037;DHT22;31769;49.304;8.428;2023-08-20T05:02:55;23.40;99.90
46037;DHT22;31769;49.304;8.428;2023-08-20T05:05:56;23.50;99.90
46037;DHT22;31769;49.304;8.428;2023-08-20T05:08:57;23.60;99.90
46037;DHT22;31769;49.304;8.428;2023-08-20T05:11:58;23.70;99.90
46037;DHT22;31769;49.304;8.428;2023-08-20T05:14:59;23.70;99.90
46037;DHT22;31769;49.304;8.428;2023-08-20T05:17:59;23.80;99.90
46037;DHT22;31769;49.304;8.428;2023-08-20T05:21:00;23.90;99.90
46037;DHT22;31769;49.304;8.428;2023-08-20T05:24:03;24.00;99.90
46037;DHT22;31769;49.304;8.428;2023-08-20T05:27:12;24.00;99.90
46037;DHT22;31769;49.304;8.428;2023-08-20T05:30:15;24.10;99.90
46037;DHT22;31769;49.304;8.428;2023-08-20T05:33:15;24.20;99.90
46037;DHT22;31769;49.304;8.428;2023-08-20T05:36:16;24.30;99.90
46037;DHT22;31769;49.304;8.428;2023-08-20T05:39:19;24.40;99.90
46037;DHT22;31769;49.304;8.428;2023-08-20T05:42:19;24.40;99.90
46037;DHT22;31769;49.304;8.428;2023-08-20T05:45:29;24.50;99.90
46037;DHT22;31769;49.304;8.428;2023-08-20T05:48:30;24.60;99.90
46037;DHT22;31769;49.304;8.428;2023-08-20T05:51:31;24.70;99.90
46037;DHT22;31769;49.304;8.428;2023-08-20T05:54:31;24.80;99.90
46037;DHT22;31769;49.304;8.428;2023-08-20T05:57:32;24.80;99.90
46037;DHT22;31769;49.304;8.428;2023-08-20T06:00:33;24.90;99.90
46037;DHT22;31769;49.304;8.428;2023-08-20T06:03:33;24.90;99.90
46037;DHT22;31769;49.304;8.428;2023-08-20T06:06:34;25.00;99.90
46037;DHT22;31769;49.304;8.428;2023-08-20T06:09:35;25.10;99.90
46037;DHT22;31769;49.304;8.428;2023-08-20T06:12:36;25.10;99.90
46037;DHT22;31769;49.304;8.428;2023-08-20T06:15:36;25.10;99.90
46037;DHT22;31769;49.304;8.428;2023-08-20T06:18:37;25.20;99.90
46037;DHT22;31769;49.304;8.428;2023-08-20T06:21:38;25.40;99.90
46037;DHT22;31769;49.304;8.428;2023-08-20T06:24:38;25.50;99.90
46037;DHT22;31769;49.304;8.428;2023-08-20T06:27:39;25.50;99.90
46037;DHT22;31769;49.304;8.428;2023-08-20T06:30:39;25.50;99.90
46037;DHT22;31769;49.304;8.428;2023-08-20T06:33:40;25.50;99.90
46037;DHT22;31769;49.304;8.428;2023-08-20T06:36:41;25.50;99.90
46037;DHT22;31769;49.304;8.428;2023-08-20T06:39:41;25.60;99.90
46037;DHT22;31769;49.304;8.428;2023-08-20T06:42:42;25.60;99.90
46037;DHT22;31769;49.304;8.428;2023-08-20T06:45:44;25.80;99.90
46037;DHT22;31769;49.304;8.428;2023-08-20T06:48:44;26.00;99.90
46037;DHT22;31769;49.304;8.428;2023-08-20T06:51:45;26.10;99.90
46037;DHT22;31769;49.304;8.428;2023-08-20T06:54:45;26.20;99.90
46037;DHT22;31769;49.304;8.428;2023-08-20T06:57:46;26.00;99.90
46037;DHT22;31769;49.304;8.428;2023-08-20T07:00:47;25.80;99.90
46037;DHT22;31769;49.304;8.428;2023-08-20T07:03:47;25.70;99.90
46037;DHT22;31769;49.304;8.428;2023-08-20T07:06:48;25.70;99.90
46037;DHT22;31769;49.304;8.428;2023-08-20T07:09:49;25.70;99.90
46037;DHT22;31769;49.304;8.428;2023-08-20T07:12:50;25.70;99.90
46037;DHT22;31769;49.304;8.428;2023-08-20T07:15:51;25.60;99.90
46037;DHT22;31769;49.304;8.428;2023-08-20T07:18:51;25.70;99.90
46037;DHT22;31769;49.304;8.428;2023-08-20T07:21:53;25.70;99.90
46037;DHT22;31769;49.304;8.428;2023-08-20T07:24:54;25.80;99.90
46037;DHT22;31769;49.304;8.428;2023-08-20T07:27:55;25.80;99.90
46037;DHT22;31769;49.304;8.428;2023-08-20T07:30:59;26.00;99.90
46037;DHT22;31769;49.304;8.428;2023-08-20T07:34:01;26.10;99.90
46037;DHT22;31769;49.304;8.428;2023-08-20T07:37:03;26.10;99.90
46037;DHT22;31769;49.304;8.428;2023-08-20T07:40:05;26.20;99.90
46037;DHT22;31769;49.304;8.428;2023-08-20T07:43:06;26.20;99.90
46037;DHT22;31769;49.304;8.428;2023-08-20T07:46:08;26.30;99.90
46037;DHT22;31769;49.304;8.428;2023-08-20T07:49:08;26.40;99.90
46037;DHT22;31769;49.304;8.428;2023-08-20T07:52:10;26.50;99.90
46037;DHT22;31769;49.304;8.428;2023-08-20T07:55:11;26.50;99.90
46037;DHT22;31769;49.304;8.428;2023-08-20T07:58:11;26.70;99.90
46037;DHT22;31769;49.304;8.428;2023-08-20T08:01:12;26.70;99.90
46037;DHT22;31769;49.304;8.428;2023-08-20T08:04:14;26.90;99.90
46037;DHT22;31769;49.304;8.428;2023-08-20T08:07:15;27.00;99.90
46037;DHT22;31769;49.304;8.428;2023-08-20T08:10:16;27.00;99.90
46037;DHT22;31769;49.304;8.428;2023-08-20T08:13:19;27.20;99.90
46037;DHT22;31769;49.304;8.428;2023-08-20T08:16:20;27.30;99.90
46037;DHT22;31769;49.304;8.428;2023-08-20T08:19:20;27.30;99.90
46037;DHT22;31769;49.304;8.428;2023-08-20T08:22:21;27.40;99.90
46037;DHT22;31769;49.304;8.428;2023-08-20T08:25:22;27.60;99.90
46037;DHT22;31769;49.304;8.428;2023-08-20T08:28:22;27.70;99.90
46037;DHT22;31769;49.304;8.428;2023-08-20T08:31:23;27.80;99.90
46037;DHT22;31769;49.304;8.428;2023-08-20T08:34:24;27.90;99.90
46037;DHT22;31769;49.304;8.428;2023-08-20T08:37:24;27.90;99.90
46037;DHT22;31769;49.304;8.428;2023-08-20T08:40:28;27.90;99.90
46037;DHT22;31769;49.304;8.428;2023-08-20T08:43:31;28.00;99.90
46037;DHT22;31769;49.304;8.428;2023-08-20T08:46:32;28.00;99.90
46037;DHT22;31769;49.304;8.428;2023-08-20T08:49:33;28.10;99.90
46037;DHT22;31769;49.304;8.428;2023-08-20T08:52:36;28.20;99.90
46037;DHT22;31769;49.304;8.428;2023-08-20T08:55:37;28.40;99.90
46037;DHT22;31769;49.304;8.428;2023-08-20T08:58:38;28.60;99.90
46037;DHT22;31769;49.304;8.428;2023-08-20T09:01:39;28.80;99.90
46037;DHT22;31769;49.304;8.428;2023-08-20T09:04:43;28.90;99.90
46037;DHT22;31769;49.304;8.428;2023-08-20T09:07:44;29.00;99.90
46037;DHT22;31769;49.304;8.428;2023-08-20T09:10:45;29.00;99.90
46037;DHT22;31769;49.304;8.428;2023-08-20T09:13:45;29.00;99.90
46037;DHT22;31769;49.304;8.428;2023-08-20T09:16:46;29.00;99.90
46037;DHT22;31769;49.304;8.428;2023-08-20T09:19:47;29.00;99.90
46037;DHT22;31769;49.304;8.428;2023-08-20T09:22:48;29.00;99.90
46037;DHT22;31769;49.304;8.428;2023-08-20T09:25:50;29.20;99.90
46037;DHT22;31769;49.304;8.428;2023-08-20T09:28:55;29.30;99.90
46037;DHT22;31769;49.304;8.428;2023-08-20T09:32:02;29.40;99.90
46037;DHT22;31769;49.304;8.428;2023-08-20T09:35:03;29.60;99.90
46037;DHT22;31769;49.304;8.428;2023-08-20T09:38:04;29.70;99.90
46037;DHT22;31769;49.304;8.428;2023-08-20T09:41:05;29.90;99.90
46037;DHT22;31769;49.304;8.428;2023-08-20T09:44:09;30.00;99.90
46037;DHT22;31769;49.304;8.428;2023-08-20T09:47:11;30.10;99.90
46037;DHT22;31769;49.304;8.428;2023-08-20T09:50:12;30.00;99.90
46037;DHT22;31769;49.304;8.428;2023-08-20T09:53:35;30.10;99.90
46037;DHT22;31769;49.304;8.428;2023-08-20T09:56:39;30.20;99.90
46037;DHT22;31769;49.304;8.428;2023-08-20T09:59:41;30.30;99.90
46037;DHT22;31769;49.304;8.428;2023-08-20T10:02:42;30.40;99.90
46037;DHT22;31769;49.304;8.428;2023-08-20T10:05:43;30.50;99.90
46037;DHT22;31769;49.304;8.428;2023-08-20T10:08:45;30.70;99.90
46037;DHT22;31769;49.304;8.428;2023-08-20T10:11:47;30.70;99.90
46037;DHT22;31769;49.304;8.428;2023-08-20T10:14:47;30.80;99.90
46037;DHT22;31769;49.304;8.428;2023-08-20T10:17:49;30.80;99.90
46037;DHT22;31769;49.304;8.428;2023-08-20T10:20:51;30.80;99.90
46037;DHT22;31769;49.304;8.428;2023-08-20T10:23:52;30.90;99.90
46037;DHT22;31769;49.304;8.428;2023-08-20T10:27:08;30.80;99.90
46037;DHT22;31769;49.304;8.428;2023-08-20T10:30:11;30.80;99.90
46037;DHT22;31769;49.304;8.428;2023-08-20T10:33:19;30.80;99.90
46037;DHT22;31769;49.304;8.428;2023-08-20T10:36:22;30.80;99.90
46037;DHT22;31769;49.304;8.428;2023-08-20T10:39:25;30.80;99.90
46037;DHT22;31769;49.304;8.428;2023-08-20T10:42:27;30.80;99.90
46037;DHT22;31769;49.304;8.428;2023-08-20T10:45:28;30.80;99.90
46037;DHT22;31769;49.304;8.428;2023-08-20T10:48:31;30.90;99.90
46037;DHT22;31769;49.304;8.428;2023-08-20T10:51:34;30.90;99.90
46037;DHT22;31769;49.304;8.428;2023-08-20T10:54:36;31.00;99.90
46037;DHT22;31769;49.304;8.428;2023-08-20T10:57:36;31.20;99.90
46037;DHT22;31769;49.304;8.428;2023-08-20T11:00:37;31.50;99.90
46037;DHT22;31769;49.304;8.428;2023-08-20T11:03:38;31.80;99.90
46037;DHT22;31769;49.304;8.428;2023-08-20T11:06:39;32.00;99.90
46037;DHT22;31769;49.304;8.428;2023-08-20T11:09:40;32.20;99.90
46037;DHT22;31769;49.304;8.428;2023-08-20T11:12:43;32.30;99.90
46037;DHT22;31769;49.304;8.428;2023-08-20T11:15:44;32.50;99.90
46037;DHT22;31769;49.304;8.428;2023-08-20T11:18:45;32.50;99.90
46037;DHT22;31769;49.304;8.428;2023-08-20T11:21:47;32.30;99.90
46037;DHT22;31769;49.304;8.428;2023-08-20T11:24:48;32.30;99.90
46037;DHT22;31769;49.304;8.428;2023-08-20T11:27:50;32.50;99.90
46037;DHT22;31769;49.304;8.428;2023-08-20T11:30:51;32.90;99.90
46037;DHT22;31769;49.304;8.428;2023-08-20T11:33:53;33.20;99.90
46037;DHT22;31769;49.304;8.428;2023-08-20T11:36:54;33.10;99.10
46037;DHT22;31769;49.304;8.428;2023-08-20T11:39:57;33.20;98.80
46037;DHT22;31769;49.304;8.428;2023-08-20T11:42:57;33.50;97.60
46037;DHT22;31769;49.304;8.428;2023-08-20T11:45:58;34.10;96.90
46037;DHT22;31769;49.304;8.428;2023-08-20T11:49:07;34.50;96.30
46037;DHT22;31769;49.304;8.428;2023-08-20T11:52:08;35.00;95.40
46037;DHT22;31769;49.304;8.428;2023-08-20T11:55:09;35.10;95.00
46037;DHT22;31769;49.304;8.428;2023-08-20T11:58:11;35.10;94.90
46037;DHT22;31769;49.304;8.428;2023-08-20T12:01:13;35.30;94.70
46037;DHT22;31769;49.304;8.428;2023-08-20T12:04:14;35.30;93.80
46037;DHT22;31769;49.304;8.428;2023-08-20T12:07:15;36.00;93.10
46037;DHT22;31769;49.304;8.428;2023-08-20T12:10:20;36.50;92.30
46037;DHT22;31769;49.304;8.428;2023-08-20T12:13:24;36.70;91.00
46037;DHT22;31769;49.304;8.428;2023-08-20T12:16:24;36.90;90.30
46037;DHT22;31769;49.304;8.428;2023-08-20T12:19:25;36.90;90.20
46037;DHT22;31769;49.304;8.428;2023-08-20T12:22:26;37.20;89.20
46037;DHT22;31769;49.304;8.428;2023-08-20T12:25:29;38.00;87.30
46037;DHT22;31769;49.304;8.428;2023-08-20T12:28:30;39.00;83.40
46037;DHT22;31769;49.304;8.428;2023-08-20T12:31:31;40.70;78.80
46037;DHT22;31769;49.304;8.428;2023-08-20T12:34:32;42.00;72.20
46037;DHT22;31769;49.304;8.428;2023-08-20T12:37:33;42.40;67.10
46037;DHT22;31769;49.304;8.428;2023-08-20T12:40:34;43.40;63.40
46037;DHT22;31769;49.304;8.428;2023-08-20T12:43:36;44.40;60.20
46037;DHT22;31769;49.304;8.428;2023-08-20T12:46:36;45.50;57.90
46037;DHT22;31769;49.304;8.428;2023-08-20T12:49:37;46.80;54.40
46037;DHT22;31769;49.304;8.428;2023-08-20T12:52:38;48.00;51.10
46037;DHT22;31769;49.304;8.428;2023-08-20T12:55:38;48.60;50.00
46037;DHT22;31769;49.304;8.428;2023-08-20T12:58:39;49.40;47.20
46037;DHT22;31769;49.304;8.428;2023-08-20T13:01:40;49.60;45.40
46037;DHT22;31769;49.304;8.428;2023-08-20T13:04:41;50.50;44.50
46037;DHT22;31769;49.304;8.428;2023-08-20T13:07:42;51.30;43.40
46037;DHT22;31769;49.304;8.428;2023-08-20T13:10:55;51.70;43.40
46037;DHT22;31769;49.304;8.428;2023-08-20T13:13:56;51.40;42.20
46037;DHT22;31769;49.304;8.428;2023-08-20T13:16:58;51.60;42.70
46037;DHT22;31769;49.304;8.428;2023-08-20T13:19:58;52.00;42.10
46037;DHT22;31769;49.304;8.428;2023-08-20T13:22:59;52.30;41.40
46037;DHT22;31769;49.304;8.428;2023-08-20T13:26:00;53.30;40.50
46037;DHT22;31769;49.304;8.428;2023-08-20T13:29:00;53.30;40.30
46037;DHT22;31769;49.304;8.428;2023-08-20T13:32:01;53.60;39.70
46037;DHT22;31769;49.304;8.428;2023-08-20T13:35:02;52.90;38.90
46037;DHT22;31769;49.304;8.428;2023-08-20T13:38:04;52.80;38.80
46037;DHT22;31769;49.304;8.428;2023-08-20T13:41:05;51.90;39.00
46037;DHT22;31769;49.304;8.428;2023-08-20T13:44:07;50.90;39.60
46037;DHT22;31769;49.304;8.428;2023-08-20T13:47:08;50.30;39.90
46037;DHT22;31769;49.304;8.428;2023-08-20T13:50:09;52.20;39.50
46037;DHT22;31769;49.304;8.428;2023-08-20T13:53:10;52.40;38.50
46037;DHT22;31769;49.304;8.428;2023-08-20T13:56:11;52.20;39.40
46037;DHT22;31769;49.304;8.428;2023-08-20T13:59:12;52.70;38.50
46037;DHT22;31769;49.304;8.428;2023-08-20T14:02:12;52.30;38.30
46037;DHT22;31769;49.304;8.428;2023-08-20T14:05:13;53.10;38.50
46037;DHT22;31769;49.304;8.428;2023-08-20T14:08:14;52.70;38.70
46037;DHT22;31769;49.304;8.428;2023-08-20T14:11:15;52.10;38.60
46037;DHT22;31769;49.304;8.428;2023-08-20T14:14:16;49.40;40.40
46037;DHT22;31769;49.304;8.428;2023-08-20T14:17:16;47.80;41.90
46037;DHT22;31769;49.304;8.428;2023-08-20T14:20:17;47.00;42.20
46037;DHT22;31769;49.304;8.428;2023-08-20T14:23:18;47.50;42.10
46037;DHT22;31769;49.304;8.428;2023-08-20T14:26:19;47.10;42.40
46037;DHT22;31769;49.304;8.428;2023-08-20T14:29:19;47.20;42.80
46037;DHT22;31769;49.304;8.428;2023-08-20T14:32:20;45.80;43.20
46037;DHT22;31769;49.304;8.428;2023-08-20T14:35:21;47.00;42.80
46037;DHT22;31769;49.304;8.428;2023-08-20T14:38:22;48.30;41.50
46037;DHT22;31769;49.304;8.428;2023-08-20T14:41:22;49.90;40.80
46037;DHT22;31769;49.304;8.428;2023-08-20T14:44:23;50.90;39.70
46037;DHT22;31769;49.304;8.428;2023-08-20T14:47:24;50.30;39.70
46037;DHT22;31769;49.304;8.428;2023-08-20T14:50:25;50.40;39.30
46037;DHT22;31769;49.304;8.428;2023-08-20T14:53:25;50.60;38.60
46037;DHT22;31769;49.304;8.428;2023-08-20T14:56:29;51.30;38.40
46037;DHT22;31769;49.304;8.428;2023-08-20T14:59:30;51.60;38.60
46037;DHT22;31769;49.304;8.428;2023-08-20T15:02:31;51.40;38.50
46037;DHT22;31769;49.304;8.428;2023-08-20T15:05:32;52.30;38.20
46037;DHT22;31769;49.304;8.428;2023-08-20T15:08:33;51.90;37.30
46037;DHT22;31769;49.304;8.428;2023-08-20T15:11:33;51.60;37.40
46037;DHT22;31769;49.304;8.428;2023-08-20T15:14:34;51.80;37.20
46037;DHT22;31769;49.304;8.428;2023-08-20T15:17:36;52.70;37.20
46037;DHT22;31769;49.304;8.428;2023-08-20T15:20:37;53.30;37.10
46037;DHT22;31769;49.304;8.428;2023-08-20T15:23:38;51.70;37.80
46037;DHT22;31769;49.304;8.428;2023-08-20T15:26:38;50.70;38.10
46037;DHT22;31769;49.304;8.428;2023-08-20T15:29:39;49.10;38.70
46037;DHT22;31769;49.304;8.428;2023-08-20T15:32:43;48.80;39.40
46037;DHT22;31769;49.304;8.428;2023-08-20T15:35:44;50.40;38.30
46037;DHT22;31769;49.304;8.428;2023-08-20T15:38:45;51.60;36.90
46037;DHT22;31769;49.304;8.428;2023-08-20T15:41:45;51.60;36.90
46037;DHT22;31769;49.304;8.428;2023-08-20T15:44:49;52.60;36.90
46037;DHT22;31769;49.304;8.428;2023-08-20T15:47:49;49.50;38.00
46037;DHT22;31769;49.304;8.428;2023-08-20T15:50:50;47.80;39.70
46037;DHT22;31769;49.304;8.428;2023-08-20T15:53:51;47.50;40.20
46037;DHT22;31769;49.304;8.428;2023-08-20T15:56:51;47.90;40.20
46037;DHT22;31769;49.304;8.428;2023-08-20T15:59:53;47.40;40.10
46037;DHT22;31769;49.304;8.428;2023-08-20T16:02:53;45.30;41.70
46037;DHT22;31769;49.304;8.428;2023-08-20T16:05:54;42.90;44.30
46037;DHT22;31769;49.304;8.428;2023-08-20T16:08:56;41.30;46.40
46037;DHT22;31769;49.304;8.428;2023-08-20T16:11:57;43.30;45.00
46037;DHT22;31769;49.304;8.428;2023-08-20T16:14:58;44.60;43.60
46037;DHT22;31769;49.304;8.428;2023-08-20T16:17:58;45.80;42.10
46037;DHT22;31769;49.304;8.428;2023-08-20T16:20:59;47.30;41.40
46037;DHT22;31769;49.304;8.428;2023-08-20T16:24:00;47.60;40.70
46037;DHT22;31769;49.304;8.428;2023-08-20T16:27:01;48.90;40.10
46037;DHT22;31769;49.304;8.428;2023-08-20T16:30:07;49.80;39.70
46037;DHT22;31769;49.304;8.428;2023-08-20T16:33:08;49.60;39.30
46037;DHT22;31769;49.304;8.428;2023-08-20T16:36:10;49.60;39.50
46037;DHT22;31769;49.304;8.428;2023-08-20T16:39:11;49.40;39.60
46037;DHT22;31769;49.304;8.428;2023-08-20T16:42:11;49.50;39.90
46037;DHT22;31769;49.304;8.428;2023-08-20T16:45:12;50.00;39.60
46037;DHT22;31769;49.304;8.428;2023-08-20T16:48:13;49.30;39.50
46037;DHT22;31769;49.304;8.428;2023-08-20T16:51:13;49.50;39.50
46037;DHT22;31769;49.304;8.428;2023-08-20T16:54:14;48.70;40.00
46037;DHT22;31769;49.304;8.428;2023-08-20T16:57:15;48.20;40.50
46037;DHT22;31769;49.304;8.428;2023-08-20T17:00:15;48.30;40.20
46037;DHT22;31769;49.304;8.428;2023-08-20T17:03:16;48.20;40.40
46037;DHT22;31769;49.304;8.428;2023-08-20T17:06:17;48.00;40.30
46037;DHT22;31769;49.304;8.428;2023-08-20T17:09:17;48.20;40.50
46037;DHT22;31769;49.304;8.428;2023-08-20T17:12:19;47.40;41.10
46037;DHT22;31769;49.304;8.428;2023-08-20T17:15:19;46.50;41.60
46037;DHT22;31769;49.304;8.428;2023-08-20T17:18:20;46.30;41.80
46037;DHT22;31769;49.304;8.428;2023-08-20T17:21:21;46.10;42.10
46037;DHT22;31769;49.304;8.428;2023-08-20T17:24:22;45.90;42.90
46037;DHT22;31769;49.304;8.428;2023-08-20T17:27:23;45.10;42.80
46037;DHT22;31769;49.304;8.428;2023-08-20T17:30:23;44.40;43.60
46037;DHT22;31769;49.304;8.428;2023-08-20T17:33:24;43.80;44.10
46037;DHT22;31769;49.304;8.428;2023-08-20T17:36:25;43.00;44.50
46037;DHT22;31769;49.304;8.428;2023-08-20T17:39:26;42.10;45.80
46037;DHT22;31769;49.304;8.428;2023-08-20T17:42:26;41.00;47.20
46037;DHT22;31769;49.304;8.428;2023-08-20T17:45:27;40.20;48.30
46037;DHT22;31769;49.304;8.428;2023-08-20T17:48:28;39.60;49.80
46037;DHT22;31769;49.304;8.428;2023-08-20T17:51:28;39.00;49.90
46037;DHT22;31769;49.304;8.428;2023-08-20T17:54:29;38.20;51.20
46037;DHT22;31769;49.304;8.428;2023-08-20T17:57:29;37.50;52.30
46037;DHT22;31769;49.304;8.428;2023-08-20T18:00:30;36.90;53.90
46037;DHT22;31769;49.304;8.428;2023-08-20T18:03:31;36.30;55.30
46037;DHT22;31769;49.304;8.428;2023-08-20T18:06:31;35.80;56.00
46037;DHT22;31769;49.304;8.428;2023-08-20T18:09:33;35.40;56.40
46037;DHT22;31769;49.304;8.428;2023-08-20T18:12:35;35.00;57.60
46037;DHT22;31769;49.304;8.428;2023-08-20T18:15:36;34.60;57.40
46037;DHT22;31769;49.304;8.428;2023-08-20T18:18:36;34.30;58.00
46037;DHT22;31769;49.304;8.428;2023-08-20T18:21:37;34.00;59.00
46037;DHT22;31769;49.304;8.428;2023-08-20T18:24:38;33.60;59.60
46037;DHT22;31769;49.304;8.428;2023-08-20T18:27:39;33.30;60.60
46037;DHT22;31769;49.304;8.428;2023-08-20T18:30:40;33.00;61.60
46037;DHT22;31769;49.304;8.428;2023-08-20T18:33:40;32.60;62.40
46037;DHT22;31769;49.304;8.428;2023-08-20T18:36:42;32.40;63.30
46037;DHT22;31769;49.304;8.428;2023-08-20T18:39:43;32.10;63.90
46037;DHT22;31769;49.304;8.428;2023-08-20T18:42:44;31.90;64.60
46037;DHT22;31769;49.304;8.428;2023-08-20T18:45:44;31.70;65.20
46037;DHT22;31769;49.304;8.428;2023-08-20T18:48:45;31.60;66.00
46037;DHT22;31769;49.304;8.428;2023-08-20T18:51:46;31.50;66.80
46037;DHT22;31769;49.304;8.428;2023-08-20T18:54:46;31.40;67.30
46037;DHT22;31769;49.304;8.428;2023-08-20T18:57:47;31.10;70.80
46037;DHT22;31769;49.304;8.428;2023-08-20T19:00:48;30.80;72.50
46037;DHT22;31769;49.304;8.428;2023-08-20T19:03:48;30.60;73.90
46037;DHT22;31769;49.304;8.428;2023-08-20T19:06:52;30.40;75.00
46037;DHT22;31769;49.304;8.428;2023-08-20T19:09:53;30.30;76.00
46037;DHT22;31769;49.304;8.428;2023-08-20T19:12:55;30.20;77.10
46037;DHT22;31769;49.304;8.428;2023-08-20T19:15:56;30.00;78.40